createdAt,value
2022-12-08T00:00:18.738Z,9.88
2022-12-08T00:02:20.116Z,9.93
2022-12-08T00:04:21.518Z,10.13
2022-12-08T00:06:43.214Z,10.02
2022-12-08T00:09:03.405Z,10.27
2022-12-08T00:11:04.757Z,10.48
2022-12-08T00:13:06.088Z,10.48
2022-12-08T00:15:07.469Z,10.13
2022-12-08T00:17:09.972Z,10.32
2022-12-08T00:19:11.316Z,10.13
2022-12-08T00:21:12.641Z,10.18
2022-12-08T00:23:14.010Z,10.10
2022-12-08T00:25:15.480Z,10.30
2022-12-08T00:27:18.028Z,10.30
2022-12-08T00:29:19.392Z,10.52
2022-12-08T00:31:20.691Z,10.85
2022-12-08T00:33:22.102Z,10.70
2022-12-08T00:35:23.425Z,10.75
2022-12-08T00:37:24.764Z,10.95
2022-12-08T00:39:26.121Z,9.93
2022-12-08T00:41:46.442Z,10.27
2022-12-08T00:43:47.774Z,10.93
2022-12-08T00:45:49.320Z,10.82
2022-12-08T00:47:50.701Z,10.95
2022-12-08T00:49:52.084Z,10.10
2022-12-08T00:51:53.659Z,10.55
2022-12-08T00:53:55.011Z,10.07
2022-12-08T00:55:56.439Z,10.50
2022-12-08T00:57:57.801Z,10.25
2022-12-08T00:59:59.172Z,11.25
2022-12-08T01:02:00.612Z,11.00
2022-12-08T01:04:08.653Z,10.63
2022-12-08T01:06:10.032Z,10.13
2022-12-08T01:08:11.410Z,10.20
2022-12-08T01:10:12.836Z,9.95
2022-12-08T01:12:14.250Z,10.45
2022-12-08T01:14:15.586Z,11.10
2022-12-08T01:16:21.574Z,10.52
2022-12-08T01:18:22.944Z,10.77
2022-12-08T01:20:24.647Z,10.57
2022-12-08T01:22:25.961Z,10.25
2022-12-08T01:24:27.331Z,10.13
2022-12-08T01:26:28.726Z,10.93
2022-12-08T01:28:31.073Z,10.35
2022-12-08T01:30:32.416Z,10.02
2022-12-08T01:32:33.829Z,10.20
2022-12-08T01:34:35.199Z,10.23
2022-12-08T01:36:37.266Z,10.65
2022-12-08T01:38:38.588Z,10.20
2022-12-08T01:40:39.925Z,10.75
2022-12-08T01:42:41.371Z,10.48
2022-12-08T01:44:42.672Z,10.60
2022-12-08T01:46:45.292Z,11.20
2022-12-08T01:48:46.877Z,11.13
2022-12-08T01:50:48.716Z,10.82
2022-12-08T01:52:52.123Z,11.68
2022-12-08T01:54:58.808Z,10.93
2022-12-08T01:57:02.966Z,11.45
2022-12-08T01:59:04.295Z,11.57
2022-12-08T02:01:06.173Z,11.45
2022-12-08T02:03:09.807Z,12.77
2022-12-08T02:05:11.697Z,11.80
2022-12-08T02:07:14.589Z,11.85
2022-12-08T02:09:15.967Z,12.38
2022-12-08T02:11:17.266Z,12.20
2022-12-08T02:13:19.740Z,12.38
2022-12-08T02:15:22.950Z,12.32
2022-12-08T02:17:42.681Z,12.15
2022-12-08T02:19:49.907Z,12.82
2022-12-08T02:21:58.973Z,12.65
2022-12-08T02:24:06.085Z,12.60
2022-12-08T02:26:19.202Z,13.95
2022-12-08T02:28:23.315Z,12.90
2022-12-08T02:30:36.786Z,13.32
2022-12-08T02:32:47.048Z,13.43
2022-12-08T02:35:02.043Z,12.95
2022-12-08T02:37:12.459Z,13.77
2022-12-08T02:39:16.956Z,13.13
2022-12-08T02:41:24.007Z,12.98
2022-12-08T02:43:32.006Z,12.50
2022-12-08T02:45:39.972Z,11.05
2022-12-08T02:47:41.521Z,10.48
2022-12-08T02:49:42.870Z,10.55
2022-12-08T02:51:44.307Z,9.93
2022-12-08T02:53:46.033Z,11.50
2022-12-08T02:56:13.696Z,9.60
2022-12-08T02:58:15.084Z,10.10
2022-12-08T03:00:27.276Z,9.80
2022-12-08T03:02:34.406Z,9.65
2022-12-08T03:04:45.037Z,9.50
2022-12-08T03:06:52.610Z,9.02
2022-12-08T03:09:03.665Z,9.30
2022-12-08T03:11:22.007Z,9.10
2022-12-08T03:13:25.429Z,9.98
2022-12-08T03:15:27.405Z,9.70
2022-12-08T03:17:29.712Z,9.95
2022-12-08T03:19:33.694Z,9.68
2022-12-08T03:21:35.901Z,9.95
2022-12-08T03:23:41.270Z,9.02
2022-12-08T03:26:05.096Z,9.32
2022-12-08T03:28:06.593Z,10.15
2022-12-08T03:30:08.251Z,10.25
2022-12-08T03:32:27.604Z,9.80
2022-12-08T03:34:29.872Z,10.55
2022-12-08T03:36:31.936Z,9.65
2022-12-08T03:38:40.791Z,10.00
2022-12-08T03:40:44.817Z,9.35
2022-12-08T03:42:46.327Z,8.70
2022-12-08T03:44:47.627Z,8.88
2022-12-08T03:46:49.007Z,8.63
2022-12-08T03:48:50.372Z,9.07
2022-12-08T03:50:51.695Z,8.15
2022-12-08T03:52:53.127Z,8.63
2022-12-08T03:54:54.444Z,8.32
2022-12-08T03:56:55.984Z,8.80
2022-12-08T03:58:57.277Z,7.72
2022-12-08T04:00:58.603Z,7.80
2022-12-08T04:03:00.096Z,7.95
2022-12-08T04:05:01.557Z,7.60
2022-12-08T04:07:02.902Z,8.38
2022-12-08T04:09:04.270Z,8.10
2022-12-08T04:11:06.581Z,8.50
2022-12-08T04:13:07.891Z,8.63
2022-12-08T04:15:09.729Z,8.88
2022-12-08T04:17:11.226Z,8.75
2022-12-08T04:19:12.555Z,8.80
2022-12-08T04:21:14.210Z,9.50
2022-12-08T04:23:15.543Z,9.82
2022-12-08T04:25:17.007Z,9.68
2022-12-08T04:27:18.336Z,10.50
2022-12-08T04:29:19.662Z,9.93
2022-12-08T04:31:21.100Z,10.15
2022-12-08T04:33:22.468Z,10.70
2022-12-08T04:35:23.887Z,11.00
2022-12-08T04:37:25.227Z,10.82
2022-12-08T04:39:26.555Z,10.63
2022-12-08T04:41:27.875Z,10.00
2022-12-08T04:43:29.530Z,10.52
2022-12-08T04:45:31.075Z,10.13
2022-12-08T04:47:32.494Z,10.02
2022-12-08T04:49:33.864Z,9.93
2022-12-08T04:51:35.176Z,9.63
2022-12-08T04:53:36.685Z,9.88
2022-12-08T04:55:39.612Z,9.38
2022-12-08T04:57:40.947Z,9.60
2022-12-08T04:59:42.283Z,10.07
2022-12-08T05:01:43.797Z,9.00
2022-12-08T05:03:45.189Z,9.90
2022-12-08T05:05:46.708Z,9.43
2022-12-08T05:07:48.084Z,9.35
2022-12-08T05:09:49.401Z,9.95
2022-12-08T05:11:50.770Z,9.80
2022-12-08T05:13:52.184Z,9.95
2022-12-08T05:15:53.646Z,11.30
2022-12-08T05:17:55.176Z,10.13
2022-12-08T05:19:56.500Z,10.40
2022-12-08T05:21:57.987Z,10.25
2022-12-08T05:23:59.564Z,10.77
2022-12-08T05:26:01.149Z,10.57
2022-12-08T05:28:39.165Z,11.85
2022-12-08T05:30:23.842Z,11.10
2022-12-08T05:32:25.137Z,11.30
2022-12-08T05:34:26.523Z,10.50
2022-12-08T05:36:27.840Z,11.80
2022-12-08T05:38:29.532Z,11.48
2022-12-08T05:40:30.876Z,11.90
2022-12-08T05:42:32.268Z,12.55
2022-12-08T05:44:33.654Z,12.32
2022-12-08T05:46:35.291Z,12.38
2022-12-08T05:48:36.612Z,12.00
2022-12-08T05:50:37.988Z,12.63
2022-12-08T05:52:39.291Z,12.05
2022-12-08T05:54:40.646Z,12.90
2022-12-08T05:56:42.058Z,12.63
2022-12-08T05:58:43.811Z,12.48
2022-12-08T06:00:46.568Z,12.15
2022-12-08T06:02:48.147Z,12.75
2022-12-08T06:04:49.549Z,12.57
2022-12-08T06:06:53.966Z,12.88
2022-12-08T06:08:55.290Z,12.82
2022-12-08T06:10:56.613Z,14.00
2022-12-08T06:12:57.937Z,13.38
2022-12-08T06:14:59.247Z,12.40
2022-12-08T06:17:00.582Z,12.93
2022-12-08T06:19:03.248Z,12.88
2022-12-08T06:21:08.521Z,12.80
2022-12-08T06:23:09.950Z,12.68
2022-12-08T06:25:11.409Z,12.23
2022-12-08T06:27:12.748Z,12.85
2022-12-08T06:29:14.135Z,12.75
2022-12-08T06:31:20.162Z,12.45
2022-12-08T06:33:21.483Z,12.73
2022-12-08T06:35:22.904Z,13.07
2022-12-08T06:37:24.244Z,12.35
2022-12-08T06:39:25.612Z,12.57
2022-12-08T06:41:26.962Z,12.55
2022-12-08T06:43:28.250Z,11.98
2022-12-08T06:45:29.613Z,11.40
2022-12-08T06:47:31.031Z,12.15
2022-12-08T06:49:32.361Z,11.88
2022-12-08T06:51:33.709Z,11.73
2022-12-08T06:53:35.078Z,12.48
2022-12-08T06:55:58.675Z,11.63
2022-12-08T06:57:57.736Z,12.30
2022-12-08T06:59:59.046Z,12.38
2022-12-08T07:02:00.502Z,11.40
2022-12-08T07:04:01.896Z,11.45
2022-12-08T07:06:04.552Z,11.48
2022-12-08T07:08:07.997Z,11.20
2022-12-08T07:10:09.657Z,11.15
2022-12-08T07:12:10.962Z,12.75
2022-12-08T07:14:12.565Z,11.82
2022-12-08T07:16:14.148Z,12.38
2022-12-08T07:18:15.537Z,11.88
2022-12-08T07:20:16.987Z,12.55
2022-12-08T07:22:18.306Z,12.50
2022-12-08T07:24:19.637Z,12.23
2022-12-08T07:26:21.036Z,12.88
2022-12-08T07:28:22.381Z,12.50
2022-12-08T07:30:23.761Z,13.13
2022-12-08T07:32:25.141Z,13.48
2022-12-08T07:34:26.458Z,12.50
2022-12-08T07:36:27.993Z,13.27
2022-12-08T07:38:29.541Z,13.00
2022-12-08T07:40:30.916Z,12.60
2022-12-08T07:42:32.603Z,14.95
2022-12-08T07:44:33.989Z,13.30
2022-12-08T07:46:35.346Z,13.20
2022-12-08T07:48:36.743Z,13.88
2022-12-08T07:50:38.067Z,13.90
2022-12-08T07:52:39.505Z,13.27
2022-12-08T07:54:41.180Z,14.27
2022-12-08T07:56:42.587Z,14.30
2022-12-08T07:58:46.632Z,13.80
2022-12-08T08:00:48.041Z,14.50
2022-12-08T08:02:49.548Z,13.18
2022-12-08T08:04:51.296Z,13.98
2022-12-08T08:06:52.662Z,12.98
2022-12-08T08:08:54.236Z,13.63
2022-12-08T08:10:55.584Z,13.25
2022-12-08T08:13:00.014Z,13.70
2022-12-08T08:15:01.698Z,13.15
2022-12-08T08:17:03.253Z,12.70
2022-12-08T08:19:04.792Z,14.32
2022-12-08T08:21:22.115Z,15.50
2022-12-08T08:23:28.042Z,13.57
2022-12-08T08:25:29.647Z,14.23
2022-12-08T08:27:30.955Z,13.82
2022-12-08T08:29:32.300Z,14.18
2022-12-08T08:31:34.026Z,14.88
2022-12-08T08:33:38.054Z,16.38
2022-12-08T08:35:39.668Z,14.10
2022-12-08T08:37:44.319Z,14.90
2022-12-08T08:39:48.582Z,14.07
2022-12-08T08:41:49.942Z,14.88
2022-12-08T08:43:51.267Z,14.30
2022-12-08T08:45:52.750Z,14.05
2022-12-08T08:47:54.109Z,13.45
2022-12-08T08:49:55.467Z,14.52
2022-12-08T08:51:56.802Z,13.77
2022-12-08T08:53:58.334Z,13.18
2022-12-08T08:56:02.560Z,13.23
2022-12-08T08:58:04.294Z,14.55
2022-12-08T09:00:06.598Z,12.90
2022-12-08T09:02:15.485Z,13.55
2022-12-08T09:04:17.056Z,13.45
2022-12-08T09:06:18.961Z,14.27
2022-12-08T09:08:20.476Z,12.85
2022-12-08T09:10:22.264Z,12.80
2022-12-08T09:12:23.734Z,12.77
2022-12-08T09:14:25.426Z,12.65
2022-12-08T09:16:26.933Z,12.88
2022-12-08T09:18:28.584Z,13.68
2022-12-08T09:20:29.962Z,13.30
2022-12-08T09:22:31.326Z,14.00
2022-12-08T09:24:32.721Z,13.70
2022-12-08T09:26:34.066Z,13.32
2022-12-08T09:28:35.503Z,13.85
2022-12-08T09:30:36.819Z,15.93
2022-12-08T09:32:38.190Z,15.30
2022-12-08T09:34:39.535Z,14.90
2022-12-08T09:36:40.929Z,14.57
2022-12-08T09:38:42.369Z,13.35
2022-12-08T09:40:49.665Z,14.60
2022-12-08T09:42:55.668Z,13.10
2022-12-08T09:45:05.685Z,13.45
2022-12-08T09:47:13.318Z,16.30
2022-12-08T09:49:16.739Z,15.05
2022-12-08T09:51:18.118Z,14.18
2022-12-08T09:53:21.311Z,13.88
2022-12-08T09:55:36.978Z,13.27
2022-12-08T09:57:38.540Z,15.52
2022-12-08T09:59:41.283Z,13.32
2022-12-08T10:01:43.026Z,14.75
2022-12-08T10:03:44.556Z,14.60
2022-12-08T10:05:52.841Z,14.20
2022-12-08T10:08:06.638Z,14.73
2022-12-08T10:10:16.667Z,14.82
2022-12-08T10:12:21.120Z,15.68
2022-12-08T10:14:22.437Z,15.00
2022-12-08T10:16:44.351Z,16.98
2022-12-08T10:18:46.849Z,14.88
2022-12-08T10:20:49.158Z,15.02
2022-12-08T10:22:53.090Z,14.30
2022-12-08T10:24:58.269Z,13.60
2022-12-08T10:27:00.361Z,15.43
2022-12-08T10:29:02.936Z,14.90
2022-12-08T10:31:04.420Z,15.05
2022-12-08T10:33:09.853Z,14.93
2022-12-08T10:35:12.981Z,14.27
2022-12-08T10:37:15.264Z,14.65
2022-12-08T10:39:35.841Z,13.27
2022-12-08T10:41:37.185Z,13.80
2022-12-08T10:43:46.956Z,13.90
2022-12-08T10:45:48.372Z,14.05
2022-12-08T10:47:57.056Z,14.68
2022-12-08T10:50:18.416Z,15.73
2022-12-08T10:52:22.921Z,14.02
2022-12-08T10:54:33.211Z,14.65
2022-12-08T10:56:34.581Z,14.10
2022-12-08T10:58:40.346Z,14.82
2022-12-08T11:00:41.727Z,15.77
2022-12-08T11:02:58.554Z,15.45
2022-12-08T11:05:00.257Z,16.77
2022-12-08T11:07:02.619Z,17.17
2022-12-08T11:09:04.019Z,17.58
2022-12-08T11:11:05.438Z,18.17
2022-12-08T11:13:12.658Z,19.05
2022-12-08T11:15:17.633Z,19.23
2022-12-08T11:17:21.877Z,19.25
2022-12-08T11:19:28.901Z,18.90
2022-12-08T11:21:34.617Z,19.73
2022-12-08T11:23:36.938Z,19.38
2022-12-08T11:25:38.385Z,19.42
2022-12-08T11:27:44.361Z,19.30
2022-12-08T11:29:45.748Z,18.13
2022-12-08T11:31:52.558Z,15.27
2022-12-08T11:33:54.173Z,16.67
2022-12-08T11:36:00.850Z,17.95
2022-12-08T11:38:20.608Z,18.73
2022-12-08T11:40:24.967Z,17.50
2022-12-08T11:42:29.794Z,17.25
2022-12-08T11:44:38.842Z,14.43
2022-12-08T11:46:42.651Z,15.23
2022-12-08T11:48:46.755Z,16.35
2022-12-08T11:50:52.984Z,16.25
2022-12-08T11:52:55.194Z,14.90
2022-12-08T11:55:20.173Z,13.02
2022-12-08T11:57:23.066Z,15.77
2022-12-08T11:59:30.437Z,14.57
2022-12-08T12:01:31.826Z,16.55
2022-12-08T12:03:38.124Z,15.60
2022-12-08T12:06:18.243Z,17.88
2022-12-08T12:08:40.204Z,17.95
2022-12-08T12:10:53.576Z,17.92
2022-12-08T12:13:13.843Z,17.48
2022-12-08T12:15:17.848Z,17.67
2022-12-08T12:17:38.066Z,17.70
2022-12-08T12:19:40.092Z,18.15
2022-12-08T12:21:53.602Z,18.00
2022-12-08T12:23:57.048Z,17.98
2022-12-08T12:26:00.089Z,19.35
2022-12-08T12:28:06.868Z,18.77
2022-12-08T12:30:18.272Z,18.73
2022-12-08T12:32:20.055Z,20.30
2022-12-08T12:34:25.830Z,17.88
2022-12-08T12:36:27.415Z,18.15
2022-12-08T12:38:53.702Z,19.00
2022-12-08T12:40:59.385Z,17.75
2022-12-08T12:43:00.698Z,18.13
2022-12-08T12:45:16.238Z,18.35
2022-12-08T12:47:37.526Z,18.13
2022-12-08T12:49:39.020Z,18.58
2022-12-08T12:51:47.539Z,18.83
2022-12-08T12:53:49.589Z,18.17
2022-12-08T12:55:51.098Z,18.38
2022-12-08T12:57:54.199Z,17.67
2022-12-08T12:59:56.239Z,20.02
2022-12-08T13:01:58.311Z,19.30
2022-12-08T13:04:06.111Z,18.20
2022-12-08T13:06:14.560Z,19.73
2022-12-08T13:08:21.341Z,19.77
2022-12-08T13:10:28.145Z,20.10
2022-12-08T13:12:29.737Z,20.42
2022-12-08T13:14:33.539Z,21.92
2022-12-08T13:16:37.076Z,21.88
2022-12-08T13:18:42.982Z,19.92
2022-12-08T13:20:47.200Z,20.63
2022-12-08T13:23:12.483Z,21.55
2022-12-08T13:25:36.656Z,23.38
2022-12-08T13:27:51.479Z,23.38
2022-12-08T13:30:12.813Z,23.20
2022-12-08T13:32:30.705Z,23.67
2022-12-08T13:34:41.899Z,24.02
2022-12-08T13:37:01.080Z,24.98
2022-12-08T13:39:03.016Z,22.73
2022-12-08T13:41:08.156Z,22.35
2022-12-08T13:43:14.910Z,22.38
2022-12-08T13:45:48.792Z,21.98
2022-12-08T13:56:44.008Z,20.75
2022-12-08T13:57:57.345Z,21.40
2022-12-08T14:00:04.405Z,21.13
2022-12-08T14:02:16.238Z,21.27
2022-12-08T14:04:47.490Z,22.98
2022-12-08T14:06:42.610Z,23.60
2022-12-08T14:09:08.394Z,24.67
2022-12-08T14:11:07.519Z,22.13
2022-12-08T14:13:11.759Z,20.45
2022-12-08T14:15:13.985Z,18.73
2022-12-08T14:17:17.360Z,19.40
2022-12-08T14:19:20.405Z,20.13
2022-12-08T14:21:22.063Z,22.17
2022-12-08T14:23:23.507Z,21.70
2022-12-08T14:25:25.619Z,23.08
2022-12-08T14:27:29.976Z,22.13
2022-12-08T14:29:39.336Z,21.50
2022-12-08T14:31:41.081Z,21.02
2022-12-08T14:33:42.921Z,24.20
2022-12-08T14:35:49.511Z,22.17
2022-12-08T14:37:53.935Z,22.10
2022-12-08T14:39:58.477Z,21.02
2022-12-08T14:42:00.767Z,21.23
2022-12-08T14:44:02.195Z,22.40
2022-12-08T14:46:06.129Z,21.98
2022-12-08T14:48:26.045Z,22.20
2022-12-08T14:50:36.598Z,20.80
2022-12-08T14:52:42.221Z,21.48
2022-12-08T14:54:44.851Z,21.73
2022-12-08T14:56:54.433Z,21.13
2022-12-08T14:59:06.996Z,21.42
2022-12-08T15:01:11.668Z,21.83
2022-12-08T15:03:13.265Z,21.17
2022-12-08T15:05:20.353Z,21.05
2022-12-08T15:07:24.070Z,20.50
2022-12-08T15:09:34.380Z,20.60
2022-12-08T15:11:35.940Z,21.17
2022-12-08T15:13:43.761Z,20.40
2022-12-08T15:15:52.230Z,19.42
2022-12-08T15:18:32.007Z,19.60
2022-12-08T15:20:39.131Z,19.35
2022-12-08T15:22:42.943Z,20.55
2022-12-08T15:24:44.226Z,20.15
2022-12-08T15:26:47.194Z,21.27
2022-12-08T15:28:48.570Z,22.08
2022-12-08T15:30:50.131Z,20.33
2022-12-08T15:32:52.717Z,20.70
2022-12-08T15:34:54.072Z,20.63
2022-12-08T15:36:55.533Z,19.42
2022-12-08T15:38:56.931Z,21.13
2022-12-08T15:41:01.278Z,22.23
2022-12-08T15:43:02.843Z,21.27
2022-12-08T15:45:04.495Z,21.15
2022-12-08T15:47:06.528Z,21.13
2022-12-08T15:49:16.016Z,22.42
2022-12-08T15:51:17.415Z,20.58
2022-12-08T15:53:18.809Z,19.92
2022-12-08T15:55:20.980Z,20.42
2022-12-08T15:57:44.272Z,21.40
2022-12-08T15:59:43.715Z,20.92
2022-12-08T16:01:45.408Z,20.02
2022-12-08T16:07:04.315Z,21.48
2022-12-08T16:09:00.559Z,21.73
2022-12-08T16:13:58.303Z,21.83
2022-12-08T16:16:05.730Z,22.48
2022-12-08T16:18:07.686Z,22.98
2022-12-08T16:20:15.271Z,22.13
2022-12-08T16:22:51.808Z,22.42
2022-12-08T16:24:39.145Z,25.13
2022-12-08T16:29:05.184Z,21.13
2022-12-08T16:31:11.744Z,20.77
2022-12-08T16:33:14.953Z,21.17
2022-12-08T16:35:16.431Z,23.13
2022-12-08T16:37:19.390Z,21.15
2022-12-08T16:39:20.875Z,20.55
2022-12-08T16:41:40.964Z,21.92
2022-12-08T16:43:42.272Z,22.65
2022-12-08T16:45:45.188Z,23.05
2022-12-08T16:47:51.019Z,23.25
2022-12-08T16:50:00.041Z,24.90
2022-12-08T16:52:04.614Z,22.80
2022-12-08T16:54:06.020Z,22.92
2022-12-08T16:56:07.498Z,22.55
2022-12-08T16:58:08.821Z,23.27
2022-12-08T17:00:14.981Z,24.75
2022-12-08T17:02:16.726Z,23.50
2022-12-08T17:04:33.714Z,23.63
2022-12-08T17:06:35.164Z,21.98
2022-12-08T17:08:36.618Z,21.63
2022-12-08T17:10:39.358Z,21.85
2022-12-08T17:12:40.897Z,22.33
2022-12-08T17:14:42.550Z,21.85
2022-12-08T17:16:44.436Z,22.45
2022-12-08T17:18:46.643Z,21.42
2022-12-08T17:20:48.002Z,22.27
2022-12-08T17:22:49.437Z,22.52
2022-12-08T17:24:50.793Z,22.50
2022-12-08T17:26:52.859Z,22.27
2022-12-08T17:29:01.878Z,20.52
2022-12-08T17:31:08.267Z,22.73
2022-12-08T17:33:09.629Z,21.52
2022-12-08T17:35:11.692Z,21.15
2022-12-08T17:37:13.327Z,20.77
2022-12-08T17:39:18.695Z,20.38
2022-12-08T17:41:20.572Z,20.88
2022-12-08T17:43:21.915Z,20.98
2022-12-08T17:45:23.255Z,21.42
2022-12-08T17:47:24.866Z,21.83
2022-12-08T17:49:27.090Z,21.35
2022-12-08T17:51:28.444Z,21.70
2022-12-08T17:53:32.940Z,21.60
2022-12-08T17:55:38.603Z,20.60
2022-12-08T17:57:40.032Z,20.50
2022-12-08T17:59:41.443Z,20.42
2022-12-08T18:01:43.181Z,20.88
2022-12-08T18:03:44.806Z,20.98
2022-12-08T18:05:46.194Z,19.98
2022-12-08T18:07:47.971Z,20.25
2022-12-08T18:09:49.383Z,21.48
2022-12-08T18:11:50.800Z,22.30
2022-12-08T18:13:52.856Z,21.77
2022-12-08T18:15:54.247Z,21.45
2022-12-08T18:17:55.520Z,22.15
2022-12-08T18:20:00.415Z,21.75
2022-12-08T18:22:01.796Z,22.95
2022-12-08T18:24:03.250Z,22.05
2022-12-08T18:26:05.457Z,22.45
2022-12-08T18:28:06.807Z,22.73
2022-12-08T18:30:09.280Z,23.00
2022-12-08T18:32:10.639Z,22.25
2022-12-08T18:34:12.005Z,22.52
2022-12-08T18:36:17.553Z,22.67
2022-12-08T18:38:19.027Z,21.92
2022-12-08T18:40:20.392Z,21.58
2022-12-08T18:42:24.593Z,22.00
2022-12-08T18:44:26.020Z,21.80
2022-12-08T18:46:27.368Z,22.23
2022-12-08T18:48:28.910Z,22.38
2022-12-08T18:50:30.265Z,21.95
2022-12-08T18:52:32.555Z,22.85
2022-12-08T18:54:58.116Z,22.92
2022-12-08T18:56:55.427Z,22.60
2022-12-08T18:59:02.917Z,23.25
2022-12-08T19:01:05.472Z,22.02
2022-12-08T19:03:06.983Z,21.27
2022-12-08T19:05:09.342Z,24.33
2022-12-08T19:07:13.677Z,22.27
2022-12-08T19:09:15.794Z,23.48
2022-12-08T19:11:18.067Z,23.58
2022-12-08T19:13:19.373Z,24.55
2022-12-08T19:15:20.728Z,24.60
2022-12-08T19:17:22.224Z,23.38
2022-12-08T19:19:24.040Z,24.17
2022-12-08T19:21:25.837Z,23.77
2022-12-08T19:23:29.078Z,22.88
2022-12-08T19:25:30.411Z,23.00
2022-12-08T19:27:34.237Z,23.63
2022-12-08T19:29:35.766Z,22.02
2022-12-08T19:31:37.292Z,22.20
2022-12-08T19:33:39.038Z,21.55
2022-12-08T19:35:40.594Z,21.13
2022-12-08T19:37:41.898Z,21.80
2022-12-08T19:40:02.620Z,22.55
2022-12-08T19:42:24.640Z,21.23
2022-12-08T19:44:32.739Z,21.27
2022-12-08T19:46:40.035Z,21.10
2022-12-08T19:48:41.818Z,20.10
2022-12-08T19:50:43.259Z,702.33
2022-12-08T19:52:44.767Z,572.25
2022-12-08T19:54:46.470Z,738.95
2022-12-08T19:56:47.889Z,800.83
2022-12-08T19:58:49.206Z,596.80
2022-12-08T20:00:50.663Z,306.38
2022-12-08T20:02:52.099Z,57.58
2022-12-08T20:04:53.526Z,197.27
2022-12-08T20:06:55.499Z,125.22
2022-12-08T20:08:56.852Z,130.82
2022-12-08T20:10:59.338Z,57.17
2022-12-08T20:13:19.472Z,30.92
2022-12-08T20:15:21.023Z,22.97
2022-12-08T20:17:22.374Z,27.38
2022-12-08T20:19:23.684Z,26.35
2022-12-08T20:21:25.133Z,22.77
2022-12-08T20:23:26.538Z,21.73
2022-12-08T20:25:27.913Z,23.13
2022-12-08T20:27:29.332Z,21.65
2022-12-08T20:29:30.810Z,22.98
2022-12-08T20:31:32.622Z,26.23
2022-12-08T20:33:34.163Z,26.55
2022-12-08T20:35:35.556Z,24.73
2022-12-08T20:37:36.934Z,22.67
2022-12-08T20:39:38.296Z,22.42
2022-12-08T20:41:40.297Z,22.17
2022-12-08T20:43:42.606Z,21.73
2022-12-08T20:45:43.965Z,20.55
2022-12-08T20:47:45.305Z,21.13
2022-12-08T20:49:47.165Z,20.50
2022-12-08T20:51:48.756Z,20.27
2022-12-08T20:53:50.226Z,21.00
2022-12-08T20:55:51.591Z,21.42
2022-12-08T20:57:52.931Z,21.33
2022-12-08T20:59:54.499Z,20.13
2022-12-08T21:01:56.054Z,19.67
2022-12-08T21:03:57.870Z,21.25
2022-12-08T21:05:59.651Z,20.60
2022-12-08T21:08:01.053Z,20.52
2022-12-08T21:10:03.756Z,21.27
2022-12-08T21:12:05.825Z,20.63
2022-12-08T21:14:07.404Z,20.52
2022-12-08T21:16:12.911Z,21.30
2022-12-08T21:18:15.316Z,24.58
2022-12-08T21:20:16.899Z,23.40
2022-12-08T21:22:18.392Z,23.35
2022-12-08T21:24:20.588Z,23.55
2022-12-08T21:26:25.820Z,23.48
2022-12-08T21:28:27.378Z,23.90
2022-12-08T21:30:28.955Z,23.58
2022-12-08T21:32:30.999Z,26.52
2022-12-08T21:34:34.291Z,25.40
2022-12-08T21:36:35.841Z,24.92
2022-12-08T21:38:38.159Z,23.20
2022-12-08T21:40:39.649Z,23.08
2022-12-08T21:42:43.914Z,24.05
2022-12-08T21:44:45.608Z,23.17
2022-12-08T21:46:47.376Z,23.13
2022-12-08T21:48:49.156Z,22.80
2022-12-08T21:50:50.862Z,23.27
2022-12-08T21:52:52.294Z,23.05
2022-12-08T21:54:53.890Z,22.42
2022-12-08T21:56:55.357Z,22.60
2022-12-08T21:58:57.114Z,24.42
2022-12-08T22:01:04.878Z,23.35
2022-12-08T22:03:06.762Z,20.67
2022-12-08T22:05:08.557Z,20.77
2022-12-08T22:07:10.093Z,21.48
2022-12-08T22:09:13.462Z,20.02
2022-12-08T22:11:15.227Z,19.92
2022-12-08T22:13:16.840Z,19.92
2022-12-08T22:15:18.253Z,19.92
2022-12-08T22:17:20.177Z,19.60
2022-12-08T22:19:21.860Z,19.30
2022-12-08T22:21:23.223Z,19.70
2022-12-08T22:23:24.973Z,19.35
2022-12-08T22:25:26.487Z,18.52
2022-12-08T22:27:28.020Z,19.88
2022-12-08T22:29:29.675Z,19.90
2022-12-08T22:31:31.499Z,19.10
2022-12-08T22:33:32.992Z,18.52
2022-12-08T22:35:34.338Z,18.42
2022-12-08T22:37:35.705Z,19.48
2022-12-08T22:39:37.050Z,19.50
2022-12-08T22:41:38.370Z,19.02
2022-12-08T22:43:40.058Z,18.90
2022-12-08T22:45:43.983Z,19.08
2022-12-08T22:47:45.401Z,18.92
2022-12-08T22:49:46.796Z,18.58
2022-12-08T22:51:48.426Z,19.13
2022-12-08T22:53:50.155Z,19.63
2022-12-08T22:55:51.828Z,20.63
2022-12-08T22:57:53.225Z,24.10
2022-12-08T22:59:54.547Z,22.88
2022-12-08T23:01:55.989Z,20.10
2022-12-08T23:03:58.181Z,21.40
2022-12-08T23:05:59.865Z,22.05
2022-12-08T23:08:01.788Z,21.75
2022-12-08T23:10:04.148Z,20.23
2022-12-08T23:12:06.218Z,20.60
2022-12-08T23:14:07.556Z,19.90
2022-12-08T23:16:09.649Z,20.30
2022-12-08T23:18:13.486Z,19.20
2022-12-08T23:20:14.999Z,18.75
2022-12-08T23:22:16.397Z,19.10
2022-12-08T23:24:17.991Z,16.35
2022-12-08T23:26:24.266Z,16.30
2022-12-08T23:28:25.794Z,15.88
2022-12-08T23:30:27.371Z,15.82
2022-12-08T23:32:28.854Z,16.52
2022-12-08T23:34:30.355Z,16.10
2022-12-08T23:36:32.066Z,16.38
2022-12-08T23:38:34.045Z,15.93
2022-12-08T23:40:35.402Z,17.00
2022-12-08T23:42:36.851Z,18.10
2022-12-08T23:44:38.200Z,20.50
2022-12-08T23:46:39.822Z,20.65
2022-12-08T23:48:41.698Z,20.17
2022-12-08T23:50:43.098Z,20.95
2022-12-08T23:52:44.404Z,20.58
2022-12-08T23:54:45.694Z,19.88
2022-12-08T23:56:47.210Z,20.73
2022-12-08T23:58:48.738Z,21.60
